TimeMDT,TemperatureF,Dew PointF,Humidity,Sea Level PressureIn,VisibilityMPH,Wind Direction,Wind SpeedMPH,Gust SpeedMPH,PrecipitationIn,Events,Conditions,WindDirDegrees,DateUTC
12:53 AM,32.0,27.0,82,30.12,10.0,Calm,Calm,-,N/A,,Clear,0,2013-10-19 06:53:00
1:53 AM,30.0,26.1,85,30.11,10.0,South,3.5,-,N/A,,Clear,180,2013-10-19 07:53:00
2:53 AM,28.9,25.0,85,30.10,10.0,Calm,Calm,-,N/A,,Clear,0,2013-10-19 08:53:00
3:53 AM,28.0,25.0,88,30.08,10.0,ESE,3.5,-,N/A,,Clear,120,2013-10-19 09:53:00
4:53 AM,27.0,25.0,92,30.07,10.0,South,8.1,-,N/A,,Clear,180,2013-10-19 10:53:00
5:53 AM,28.9,26.1,89,30.07,10.0,Calm,Calm,-,N/A,,Clear,0,2013-10-19 11:53:00
6:53 AM,26.1,24.1,92,30.09,10.0,South,4.6,-,N/A,,Clear,190,2013-10-19 12:53:00
7:53 AM,27.0,25.0,92,30.10,10.0,South,3.5,-,N/A,,Clear,170,2013-10-19 13:53:00
8:53 AM,32.0,28.9,88,30.10,10.0,SW,3.5,-,N/A,,Clear,220,2013-10-19 14:53:00
9:53 AM,36.0,30.0,79,30.10,10.0,WSW,3.5,-,N/A,,Clear,240,2013-10-19 15:53:00
10:53 AM,41.0,30.9,67,30.08,10.0,Calm,Calm,-,N/A,,Clear,0,2013-10-19 16:53:00
11:53 AM,46.0,30.9,56,30.05,10.0,South,4.6,-,N/A,,Clear,190,2013-10-19 17:53:00
12:53 PM,50.0,28.9,44,30.02,10.0,Calm,Calm,-,N/A,,Clear,0,2013-10-19 18:53:00
1:53 PM,54.0,26.1,34,29.99,10.0,Calm,Calm,-,N/A,,Clear,0,2013-10-19 19:53:00
2:53 PM,55.9,27.0,33,29.96,10.0,Variable,3.5,-,N/A,,Clear,0,2013-10-19 20:53:00
3:53 PM,55.0,28.9,37,29.95,10.0,North,3.5,-,N/A,,Clear,10,2013-10-19 21:53:00
4:53 PM,57.0,28.0,33,29.94,10.0,East,4.6,-,N/A,,Clear,90,2013-10-19 22:53:00
5:53 PM,53.1,34.0,48,29.94,10.0,Calm,Calm,-,N/A,,Clear,0,2013-10-19 23:53:00
6:53 PM,44.1,34.0,68,29.98,10.0,ENE,4.6,-,N/A,,Clear,60,2013-10-20 00:53:00
7:53 PM,41.0,32.0,70,29.98,10.0,Calm,Calm,-,N/A,,Clear,0,2013-10-20 01:53:00
8:53 PM,39.9,30.9,70,29.97,10.0,SSW,4.6,-,N/A,,Partly Cloudy,210,2013-10-20 02:53:00
9:53 PM,42.1,33.1,70,29.96,10.0,SW,5.8,-,N/A,,Partly Cloudy,220,2013-10-20 03:53:00
10:53 PM,39.9,33.1,77,29.96,10.0,Calm,Calm,-,N/A,,Mostly Cloudy,0,2013-10-20 04:53:00
11:53 PM,37.9,33.1,83,29.97,10.0,ESE,3.5,-,N/A,,Partly Cloudy,110,2013-10-20 05:53:00